Time;durP1;ratioP1;P1;durP2;ratioP2;P2;SDS_P1;SDS_P2;PMS_P1;PMS_P2;Temp;Humidity;BMP_temperature;BMP_pressure;BME280_temperature;BME280_humidity;BME280_pressure;Samples;Min_cycle;Max_cycle;Signal;HPM_P1;HPM_P2
2022/07/16 00:04:35;;;;;;;8.23;3.70;;;11.00;99.90;;;;;;10118030;29;20048;-83
2022/07/16 00:09:35;;;;;;;7.03;3.47;;;10.90;99.90;;;;;;10139967;29;20048;-82
2022/07/16 00:14:36;;;;;;;7.40;4.07;;;10.80;99.90;;;;;;10137848;29;20043;-81
2022/07/16 00:19:37;;;;;;;9.83;3.77;;;10.60;99.90;;;;;;10132666;29;20028;-84
2022/07/16 00:24:37;;;;;;;5.80;2.85;;;10.60;99.90;;;;;;10137720;29;20028;-84
2022/07/16 00:29:38;;;;;;;6.18;3.35;;;10.60;99.90;;;;;;10152339;29;20104;-83
2022/07/16 00:34:39;;;;;;;7.13;3.17;;;10.70;99.90;;;;;;10148457;29;20037;-82
2022/07/16 00:39:39;;;;;;;8.73;3.65;;;10.60;99.90;;;;;;10149377;29;20033;-83
2022/07/16 00:44:40;;;;;;;6.38;3.42;;;10.70;99.90;;;;;;10155995;29;20116;-84
2022/07/16 00:49:41;;;;;;;7.15;3.13;;;10.50;99.90;;;;;;10128283;29;20127;-82
2022/07/16 00:54:41;;;;;;;6.80;3.27;;;10.40;99.90;;;;;;10138382;29;20042;-82
2022/07/16 00:59:42;;;;;;;9.13;4.43;;;10.40;99.90;;;;;;10154863;29;20028;-82
2022/07/16 01:04:43;;;;;;;10.23;5.55;;;10.30;99.90;;;;;;10158451;29;20061;-83
2022/07/16 01:09:44;;;;;;;9.90;5.70;;;10.30;99.90;;;;;;10139725;29;20052;-82
2022/07/16 01:14:45;;;;;;;15.15;6.97;;;10.20;99.90;;;;;;10140555;29;20533;-83
2022/07/16 01:19:46;;;;;;;9.52;5.50;;;10.20;99.90;;;;;;10146195;29;20057;-84
2022/07/16 01:24:48;;;;;;;13.45;7.40;;;10.20;99.90;;;;;;10141068;29;20389;-85
2022/07/16 01:29:48;;;;;;;9.85;5.35;;;10.10;99.90;;;;;;10146542;29;20413;-82
2022/07/16 01:34:49;;;;;;;13.03;6.30;;;10.10;99.90;;;;;;10140023;29;20043;-85
2022/07/16 01:39:49;;;;;;;13.55;6.57;;;10.10;99.90;;;;;;10156083;29;20149;-83
2022/07/16 01:44:52;;;;;;;12.83;6.20;;;10.10;99.90;;;;;;10137084;29;20045;-83
2022/07/16 01:49:53;;;;;;;14.47;6.60;;;10.10;99.90;;;;;;10114739;29;20147;-83
2022/07/16 01:54:53;;;;;;;14.18;6.90;;;10.10;99.90;;;;;;10149895;29;20052;-83
2022/07/16 01:59:54;;;;;;;11.50;6.83;;;10.10;99.90;;;;;;10121137;29;20067;-84
2022/07/16 02:04:55;;;;;;;12.32;6.63;;;10.10;99.90;;;;;;10149468;29;20488;-82
2022/07/16 02:09:55;;;;;;;14.10;7.73;;;10.10;99.90;;;;;;10138939;29;20056;-83
2022/07/16 02:14:56;;;;;;;18.73;10.83;;;10.10;99.90;;;;;;10136105;29;20037;-85
2022/07/16 02:19:56;;;;;;;23.03;12.90;;;10.00;99.90;;;;;;10136537;29;20044;-85
2022/07/16 02:24:57;;;;;;;23.30;11.87;;;10.00;99.90;;;;;;10150355;29;20044;-84
2022/07/16 02:29:59;;;;;;;27.93;14.63;;;10.00;99.90;;;;;;10150301;29;20103;-83
2022/07/16 02:35:00;;;;;;;28.10;13.60;;;10.10;99.90;;;;;;10143409;29;20040;-83
2022/07/16 02:40:01;;;;;;;20.97;11.43;;;10.00;99.90;;;;;;10144854;29;20043;-83
2022/07/16 02:45:02;;;;;;;19.73;11.70;;;9.90;99.90;;;;;;10143914;29;20032;-83
2022/07/16 02:50:03;;;;;;;21.37;12.83;;;9.90;99.90;;;;;;10149887;29;20048;-83
2022/07/16 02:55:05;;;;;;;21.13;12.63;;;9.90;99.90;;;;;;10144734;29;20031;-83
2022/07/16 03:00:09;;;;;;;19.20;12.13;;;9.90;99.90;;;;;;10148901;29;20037;-84
2022/07/16 03:05:10;;;;;;;22.67;12.63;;;9.90;99.90;;;;;;10113382;29;20028;-84
2022/07/16 03:10:12;;;;;;;22.60;13.47;;;9.90;99.90;;;;;;10154442;29;20038;-87
2022/07/16 03:15:13;;;;;;;21.53;11.77;;;9.90;99.90;;;;;;10128700;29;20728;-85
2022/07/16 03:20:13;;;;;;;20.33;11.93;;;9.90;99.90;;;;;;10153359;29;20038;-83
2022/07/16 03:25:15;;;;;;;22.10;12.77;;;9.80;99.90;;;;;;10157450;29;20111;-83
2022/07/16 03:30:17;;;;;;;18.30;11.95;;;9.90;99.90;;;;;;10157983;29;20055;-83
2022/07/16 03:35:17;;;;;;;21.70;11.40;;;10.00;99.90;;;;;;10121626;29;20025;-85
2022/07/16 03:40:18;;;;;;;21.97;12.07;;;10.20;99.90;;;;;;10135271;29;20036;-84
2022/07/16 03:45:19;;;;;;;21.77;11.37;;;10.40;99.90;;;;;;10141439;29;20124;-83
2022/07/16 03:50:20;;;;;;;17.95;10.45;;;10.70;99.90;;;;;;10142290;29;20036;-83
2022/07/16 03:55:21;;;;;;;19.52;10.90;;;11.00;99.90;;;;;;10142700;29;20393;-85
2022/07/16 04:00:22;;;;;;;14.93;9.98;;;11.20;99.90;;;;;;10123750;29;20860;-83
2022/07/16 04:05:22;;;;;;;12.88;8.50;;;11.30;99.90;;;;;;10153744;29;20031;-83
2022/07/16 04:10:23;;;;;;;14.85;8.00;;;11.40;99.90;;;;;;10147676;29;20036;-86
2022/07/16 04:15:24;;;;;;;15.18;7.45;;;11.50;99.90;;;;;;10153913;29;20688;-83
2022/07/16 04:20:25;;;;;;;10.82;6.90;;;11.60;99.90;;;;;;10146805;29;20060;-83
2022/07/16 04:25:25;;;;;;;10.00;6.55;;;11.60;99.90;;;;;;10151615;29;20557;-84
2022/07/16 04:30:26;;;;;;;15.63;7.28;;;11.70;99.90;;;;;;10129681;29;20056;-84
2022/07/16 04:35:27;;;;;;;12.38;7.68;;;11.80;99.90;;;;;;10141231;29;20825;-83
2022/07/16 04:40:27;;;;;;;15.77;8.00;;;11.80;99.90;;;;;;10143774;29;20036;-85
2022/07/16 04:45:28;;;;;;;15.90;8.85;;;12.00;99.90;;;;;;10141338;29;20389;-83
2022/07/16 04:50:28;;;;;;;14.48;8.48;;;12.30;99.90;;;;;;10145141;29;20037;-83
2022/07/16 04:55:29;;;;;;;16.77;8.43;;;12.60;99.90;;;;;;10150051;29;20047;-83
2022/07/16 05:00:30;;;;;;;17.40;8.68;;;12.80;99.90;;;;;;10143474;29;20144;-82
2022/07/16 05:05:32;;;;;;;17.05;8.98;;;13.10;99.90;;;;;;10118704;29;20040;-88
2022/07/16 05:10:33;;;;;;;15.63;7.82;;;13.30;99.90;;;;;;10128044;29;20570;-84
2022/07/16 05:15:33;;;;;;;15.32;9.00;;;13.50;99.90;;;;;;10129790;29;20024;-88
2022/07/16 05:20:34;;;;;;;13.55;8.80;;;13.70;99.90;;;;;;10136271;29;20408;-83
2022/07/16 05:25:35;;;;;;;14.32;9.23;;;13.80;99.90;;;;;;10143228;29;20028;-83
2022/07/16 05:30:36;;;;;;;15.63;8.63;;;13.90;99.90;;;;;;10144672;29;20056;-84
2022/07/16 05:35:36;;;;;;;16.88;8.48;;;14.10;99.90;;;;;;10138606;29;20047;-83
2022/07/16 05:40:37;;;;;;;14.10;9.10;;;14.30;99.90;;;;;;10158269;29;20035;-85
2022/07/16 05:45:38;;;;;;;14.20;8.50;;;14.60;99.90;;;;;;10145146;29;20112;-84
2022/07/16 05:50:38;;;;;;;15.95;8.05;;;14.80;99.90;;;;;;10147256;29;20047;-84
2022/07/16 05:55:39;;;;;;;14.52;7.40;;;15.20;99.90;;;;;;10141305;29;20036;-83
2022/07/16 06:00:40;;;;;;;14.88;7.13;;;15.30;99.90;;;;;;10134510;29;20512;-83
2022/07/16 06:05:41;;;;;;;14.95;7.40;;;15.60;99.90;;;;;;10154438;23;20175;-83
2022/07/16 06:10:41;;;;;;;11.73;6.28;;;15.80;99.90;;;;;;10126005;29;20426;-83
2022/07/16 06:15:42;;;;;;;11.18;5.95;;;16.00;99.90;;;;;;10129085;29;20041;-83
2022/07/16 06:20:43;;;;;;;10.10;6.88;;;16.10;99.90;;;;;;10134661;29;20045;-82
2022/07/16 06:25:43;;;;;;;11.70;5.70;;;16.20;99.90;;;;;;10126968;29;20746;-81
2022/07/16 06:30:44;;;;;;;7.88;4.55;;;16.50;99.90;;;;;;10144877;29;20044;-84
2022/07/16 06:35:45;;;;;;;9.57;5.25;;;16.60;99.90;;;;;;10131330;29;20478;-82
2022/07/16 06:40:46;;;;;;;7.13;4.18;;;16.70;99.90;;;;;;10127370;29;20036;-81
2022/07/16 06:45:47;;;;;;;7.70;3.88;;;16.70;99.90;;;;;;10140202;29;20047;-80
2022/07/16 06:50:47;;;;;;;6.68;2.63;;;16.80;99.90;;;;;;10147270;29;20500;-87
2022/07/16 06:55:48;;;;;;;5.35;2.65;;;16.90;99.90;;;;;;10131453;29;20031;-85
2022/07/16 07:00:49;;;;;;;5.03;2.42;;;17.00;99.90;;;;;;10125414;29;20173;-87
2022/07/16 07:05:58;;;;;;;5.45;2.55;;;18.00;99.90;;;;;;10142112;29;20981;-87
2022/07/16 07:17:00;;;;;;;6.72;3.38;;;21.20;91.30;;;;;;10148794;29;20041;-86
2022/07/16 07:22:01;;;;;;;7.43;2.53;;;22.20;83.30;;;;;;10137384;29;20041;-88
2022/07/16 07:27:39;;;;;;;4.97;2.15;;;22.80;77.60;;;;;;10129081;29;20088;-85
2022/07/16 07:55:16;;;;;;;5.93;2.30;;;23.40;67.40;;;;;;11848790;23;20031;-83
2022/07/16 08:00:19;;;;;;;5.90;2.53;;;22.90;67.50;;;;;;10109548;29;20068;-84
2022/07/16 08:22:27;;;;;;;5.93;1.83;;;21.80;68.70;;;;;;10123691;29;20485;-86
2022/07/16 08:27:55;;;;;;;6.45;2.05;;;21.70;67.60;;;;;;10126695;29;20089;-85
2022/07/16 08:32:56;;;;;;;6.72;2.50;;;21.60;69.40;;;;;;10105765;29;20576;-88
2022/07/16 08:37:57;;;;;;;9.25;2.08;;;21.40;67.70;;;;;;10110524;29;20024;-86
2022/07/16 08:42:58;;;;;;;4.47;1.88;;;21.40;69.60;;;;;;10125051;29;20036;-85
2022/07/16 08:47:59;;;;;;;7.00;2.90;;;22.00;69.30;;;;;;10126605;29;20040;-85
2022/07/16 08:53:23;;;;;;;4.75;2.42;;;22.40;67.00;;;;;;10125891;29;20048;-87
2022/07/16 08:58:46;;;;;;;7.15;2.38;;;22.30;64.30;;;;;;10107445;29;20123;-86
2022/07/16 09:03:57;;;;;;;4.97;2.25;;;22.30;66.90;;;;;;10121193;29;20459;-84
2022/07/16 09:08:59;;;;;;;4.05;1.85;;;22.40;66.90;;;;;;10125882;29;20067;-86
2022/07/16 09:14:18;;;;;;;5.22;2.13;;;22.40;67.00;;;;;;10111996;29;20049;-89
2022/07/16 09:19:22;;;;;;;5.63;2.15;;;22.60;67.50;;;;;;10107979;29;20020;-84
2022/07/16 09:24:43;;;;;;;4.13;1.80;;;22.70;65.50;;;;;;10119649;29;20036;-86
2022/07/16 09:42:08;;;;;;;3.35;1.45;;;23.00;64.90;;;;;;10129039;23;20675;-85
2022/07/16 09:47:12;;;;;;;2.50;1.30;;;23.10;65.40;;;;;;10122555;29;20061;-84
2022/07/16 09:58:12;;;;;;;3.00;1.13;;;22.70;62.90;;;;;;10124020;29;20032;-85
2022/07/16 10:03:14;;;;;;;3.65;1.63;;;22.80;63.80;;;;;;10116029;29;20040;-85
2022/07/16 10:14:12;;;;;;;3.05;1.23;;;23.40;62.90;;;;;;10300898;23;20935;-85
2022/07/16 10:19:14;;;;;;;2.58;1.33;;;23.70;59.90;;;;;;10129167;29;20029;-85
2022/07/16 10:24:58;;;;;;;2.65;1.48;;;23.80;62.20;;;;;;10130966;29;20545;-89
2022/07/16 10:36:05;;;;;;;6.60;1.42;;;24.10;63.20;;;;;;10460558;23;20097;-84
2022/07/16 10:41:26;;;;;;;6.45;1.38;;;24.20;62.10;;;;;;10131877;29;20079;-86
2022/07/16 10:46:27;;;;;;;3.72;1.75;;;24.20;62.10;;;;;;10128435;29;20032;-88
2022/07/16 10:51:27;;;;;;;4.88;1.73;;;24.20;61.90;;;;;;10113698;29;20028;-90
2022/07/16 10:56:32;;;;;;;5.63;2.17;;;24.90;61.60;;;;;;10110283;29;20539;-86
2022/07/16 11:01:38;;;;;;;3.33;1.50;;;24.90;59.60;;;;;;10128566;29;20025;-89
2022/07/16 11:06:40;;;;;;;3.65;1.63;;;24.60;60.80;;;;;;10114089;29;20475;-86
2022/07/16 11:11:42;;;;;;;2.85;1.40;;;24.40;62.00;;;;;;10131856;29;20120;-86
2022/07/16 11:16:52;;;;;;;1.30;0.90;;;24.40;60.50;;;;;;10111733;29;20570;-85
2022/07/16 11:28:00;;;;;;;3.03;1.48;;;24.90;58.10;;;;;;10116694;29;20131;-85
2022/07/16 11:33:01;;;;;;;3.60;1.20;;;24.50;55.20;;;;;;10119684;29;20045;-84
2022/07/16 11:38:01;;;;;;;5.22;1.08;;;24.00;60.20;;;;;;10106661;29;20364;-85
2022/07/16 11:43:03;;;;;;;1.52;1.00;;;23.80;58.80;;;;;;10106950;29;20025;-85
2022/07/16 11:48:16;;;;;;;2.92;1.00;;;23.30;59.50;;;;;;10111334;29;20036;-83
2022/07/16 11:53:29;;;;;;;2.35;1.00;;;22.90;59.80;;;;;;10109955;29;20040;-83
2022/07/16 11:58:30;;;;;;;3.25;1.40;;;23.40;58.80;;;;;;10097339;29;20417;-84
2022/07/16 12:09:30;;;;;;;2.22;1.10;;;24.00;59.30;;;;;;10112762;29;20037;-90
2022/07/16 12:14:54;;;;;;;2.30;0.98;;;24.80;60.10;;;;;;10117969;29;20053;-87
2022/07/16 12:26:11;;;;;;;1.85;1.00;;;24.00;60.80;;;;;;10124582;29;20036;-86
2022/07/16 12:31:11;;;;;;;1.40;1.02;;;24.40;58.60;;;;;;10104868;29;20421;-85
2022/07/16 12:42:23;;;;;;;2.95;0.90;;;25.10;57.80;;;;;;10081382;29;20045;-86
2022/07/16 12:47:32;;;;;;;1.75;1.05;;;25.50;57.00;;;;;;10080502;29;20082;-87
2022/07/16 13:05:29;;;;;;;3.10;1.80;;;24.10;60.30;;;;;;10079350;29;20037;-86
2022/07/16 13:10:54;;;;;;;16.08;9.05;;;23.90;60.30;;;;;;10063236;29;20053;-83
2022/07/16 13:22:08;;;;;;;3.38;1.67;;;23.20;59.00;;;;;;10474507;23;20072;-86
2022/07/16 13:27:08;;;;;;;4.50;1.40;;;22.80;61.70;;;;;;10107103;29;20036;-83
2022/07/16 15:06:36;;;;;;;4.05;1.40;;;19.70;72.20;;;;;;10326102;23;20526;-84
2022/07/16 15:11:36;;;;;;;6.55;2.20;;;19.10;75.00;;;;;;10110912;29;20136;-82
2022/07/16 15:16:37;;;;;;;1.65;1.30;;;18.60;82.80;;;;;;10126437;29;20511;-84
2022/07/16 15:21:38;;;;;;;2.53;1.23;;;17.80;88.20;;;;;;10051614;29;20475;-86
2022/07/16 15:26:38;;;;;;;2.90;1.00;;;17.10;91.30;;;;;;10051339;29;20052;-84
2022/07/16 15:37:43;;;;;;;5.40;1.42;;;16.20;95.60;;;;;;10050757;29;20049;-84
2022/07/16 15:48:45;;;;;;;1.92;1.73;;;15.80;99.90;;;;;;10056944;29;20065;-84
2022/07/16 15:53:47;;;;;;;6.40;3.10;;;15.30;99.90;;;;;;10052300;29;20062;-85
2022/07/16 15:59:08;;;;;;;3.00;1.90;;;14.80;99.90;;;;;;10104041;29;20044;-85
2022/07/16 16:04:57;;;;;;;6.45;4.47;;;14.10;99.90;;;;;;10104228;29;20366;-88
2022/07/16 16:16:04;;;;;;;;;;;14.00;99.90;;;;;;10119624;29;20033;-85
2022/07/16 16:21:24;;;;;;;9.13;5.80;;;14.10;99.90;;;;;;10111488;29;19998;-85
2022/07/16 16:26:24;;;;;;;6.78;3.60;;;14.40;99.90;;;;;;10110643;29;20020;-86
2022/07/16 16:31:25;;;;;;;6.10;4.38;;;14.80;99.90;;;;;;10107745;29;20544;-85
2022/07/16 16:36:54;;;;;;;5.93;2.70;;;14.90;99.90;;;;;;10100974;29;20478;-85
2022/07/16 16:47:56;;;;;;;5.43;2.80;;;15.10;99.90;;;;;;10125679;29;20354;-86
2022/07/16 16:52:57;;;;;;;5.28;2.63;;;15.20;99.90;;;;;;10116654;29;20037;-84
2022/07/16 16:57:58;;;;;;;4.57;2.38;;;15.20;99.90;;;;;;10106413;29;20029;-83
2022/07/16 17:10:27;;;;;;;4.55;2.33;;;15.10;99.90;;;;;;10123683;29;20115;-84
2022/07/16 17:15:46;;;;;;;4.40;2.50;;;15.00;99.90;;;;;;10109478;29;20088;-84
2022/07/16 17:20:50;;;;;;;6.25;3.10;;;14.90;99.90;;;;;;10123902;29;20115;-83
2022/07/16 17:25:53;;;;;;;5.50;2.55;;;14.80;99.90;;;;;;10103478;29;20108;-83
2022/07/16 17:30:54;;;;;;;4.40;2.85;;;14.70;99.90;;;;;;10094196;29;20036;-84
2022/07/16 17:36:00;;;;;;;3.90;2.83;;;14.60;99.90;;;;;;10097215;29;20566;-85
2022/07/16 17:41:40;;;;;;;5.70;3.95;;;14.50;99.90;;;;;;10098416;29;20033;-83
2022/07/16 17:52:41;;;;;;;5.22;3.22;;;14.50;99.90;;;;;;10091281;29;20083;-86
2022/07/16 17:57:48;;;;;;;8.85;6.18;;;14.50;99.90;;;;;;10115291;29;20458;-84
2022/07/16 18:03:12;;;;;;;6.07;4.50;;;14.40;99.90;;;;;;10099055;29;20510;-84
2022/07/16 18:08:13;;;;;;;12.52;7.35;;;14.40;99.90;;;;;;10059864;29;20053;-84
2022/07/16 18:13:36;;;;;;;8.23;4.43;;;14.50;99.90;;;;;;10061125;29;20041;-86
2022/07/16 18:24:38;;;;;;;6.65;4.88;;;14.60;99.90;;;;;;10744143;23;20115;-84
2022/07/16 19:50:41;;;;;;;13.05;8.63;;;13.50;99.90;;;;;;10333369;23;20057;-84
2022/07/16 20:23:11;;;;;;;22.95;15.43;;;12.80;99.90;;;;;;12223282;23;20026;-86
2022/07/16 20:28:58;;;;;;;18.58;11.68;;;12.90;99.90;;;;;;10075108;29;20544;-83
2022/07/16 20:34:29;;;;;;;17.38;10.52;;;12.90;99.90;;;;;;10087268;29;20643;-85
2022/07/16 20:40:08;;;;;;;15.38;8.98;;;12.70;99.90;;;;;;10072961;29;20725;-82
2022/07/16 20:45:12;;;;;;;9.90;6.30;;;12.60;99.90;;;;;;10083340;29;20112;-83
2022/07/16 21:21:50;;;;;;;20.58;10.55;;;12.10;99.90;;;;;;10087733;29;20041;-83
2022/07/16 21:26:51;;;;;;;16.13;10.40;;;12.00;99.90;;;;;;10085224;29;20048;-83
2022/07/16 21:38:47;;;;;;;;;;;;;;;;;;;;;
2022/07/16 21:43:58;;;;;;;23.98;13.88;;;11.80;99.90;;;;;;10058410;29;20041;-85
2022/07/16 21:48:59;;;;;;;22.08;14.10;;;11.80;99.90;;;;;;10068309;29;20048;-85
2022/07/16 21:54:00;;;;;;;26.25;15.35;;;11.80;99.90;;;;;;10096584;29;20057;-84
2022/07/16 21:59:00;;;;;;;24.15;15.10;;;11.70;99.90;;;;;;10101572;29;20396;-84
2022/07/16 22:04:01;;;;;;;21.90;14.43;;;11.50;99.90;;;;;;10113887;29;20040;-84
2022/07/16 22:09:02;;;;;;;22.00;13.82;;;11.40;99.90;;;;;;10094407;29;20041;-85
2022/07/16 22:14:03;;;;;;;33.95;18.45;;;11.30;99.90;;;;;;10110745;29;20477;-84
2022/07/16 22:24:23;;;;;;;30.70;18.48;;;11.10;99.90;;;;;;10083677;29;20049;-83
2022/07/16 22:29:24;;;;;;;31.65;16.92;;;11.00;99.90;;;;;;10085227;29;20029;-84
2022/07/16 22:34:24;;;;;;;31.40;18.95;;;11.00;99.90;;;;;;10087345;29;20045;-85
2022/07/16 22:39:25;;;;;;;40.10;23.45;;;11.10;99.90;;;;;;10087061;29;20033;-84
2022/07/16 22:44:26;;;;;;;38.83;23.05;;;11.30;99.90;;;;;;10084278;29;20041;-84
2022/07/16 22:49:26;;;;;;;45.25;26.80;;;11.40;99.90;;;;;;10067786;29;20037;-84
2022/07/16 22:54:27;;;;;;;52.25;31.10;;;11.50;99.90;;;;;;10067037;29;20053;-84
2022/07/16 22:59:28;;;;;;;47.65;28.83;;;11.50;99.90;;;;;;10068902;29;20037;-84
2022/07/16 23:04:28;;;;;;;55.42;31.90;;;11.50;99.90;;;;;;10066778;29;20033;-85
2022/07/16 23:09:29;;;;;;;48.63;30.27;;;11.50;99.90;;;;;;10085248;29;20029;-84
2022/07/16 23:14:29;;;;;;;42.28;29.05;;;11.50;99.90;;;;;;10083303;29;20052;-84
2022/07/16 23:19:30;;;;;;;21.48;12.48;;;11.50;99.90;;;;;;10087060;29;20033;-84
2022/07/16 23:24:31;;;;;;;34.05;22.63;;;11.40;99.90;;;;;;10069992;29;20052;-84
2022/07/16 23:29:31;;;;;;;33.00;22.67;;;11.20;99.90;;;;;;10091858;29;20045;-84
2022/07/16 23:34:32;;;;;;;33.67;22.60;;;11.20;99.90;;;;;;10073307;29;20041;-85
2022/07/16 23:39:32;;;;;;;39.80;25.55;;;11.10;99.90;;;;;;10088229;29;20474;-84
2022/07/16 23:44:33;;;;;;;39.50;25.33;;;11.10;99.90;;;;;;10090766;29;20462;-84
2022/07/16 23:49:33;;;;;;;32.03;22.00;;;11.10;99.90;;;;;;10082674;29;20045;-84
2022/07/16 23:54:34;;;;;;;34.65;22.92;;;11.10;99.90;;;;;;10072114;29;20530;-85
2022/07/16 23:59:34;;;;;;;39.83;24.00;;;11.10;99.90;;;;;;10091394;29;20037;-85
